createdAt,value
2019-03-08T00:01:01.643Z,1.83
2019-03-08T00:03:31.008Z,1.97
2019-03-08T00:06:00.430Z,2.00
2019-03-08T00:08:29.732Z,1.80
2019-03-08T00:10:59.445Z,2.00
2019-03-08T00:13:28.816Z,1.70
2019-03-08T00:15:58.285Z,2.10
2019-03-08T00:18:27.580Z,2.50
2019-03-08T00:20:56.942Z,2.10
2019-03-08T00:23:26.213Z,1.50
2019-03-08T00:25:55.652Z,1.73
2019-03-08T00:28:24.952Z,2.07
2019-03-08T00:30:54.210Z,2.10
2019-03-08T00:33:23.520Z,1.60
2019-03-08T00:35:52.797Z,1.77
2019-03-08T00:38:22.239Z,1.60
2019-03-08T00:40:51.577Z,2.07
2019-03-08T00:43:20.939Z,1.73
2019-03-08T00:45:50.292Z,1.70
2019-03-08T00:48:19.579Z,1.90
2019-03-08T00:50:48.891Z,1.67
2019-03-08T00:53:18.632Z,2.30
2019-03-08T00:55:47.929Z,2.00
2019-03-08T00:58:17.263Z,1.87
2019-03-08T01:00:46.563Z,2.20
2019-03-08T01:03:15.862Z,2.03
2019-03-08T01:05:45.217Z,1.77
2019-03-08T01:08:15.051Z,1.97
2019-03-08T01:10:44.395Z,1.80
2019-03-08T01:13:13.702Z,2.10
2019-03-08T01:15:43.362Z,1.87
2019-03-08T01:18:12.627Z,2.67
2019-03-08T01:20:41.927Z,2.00
2019-03-08T01:23:11.202Z,2.10
2019-03-08T01:25:40.709Z,2.10
2019-03-08T01:28:12.357Z,2.30
2019-03-08T01:30:42.493Z,2.10
2019-03-08T01:33:12.736Z,2.10
2019-03-08T01:35:42.081Z,1.83
2019-03-08T01:38:11.357Z,2.03
2019-03-08T01:40:40.702Z,2.63
2019-03-08T01:43:10.331Z,2.07
2019-03-08T01:45:40.155Z,1.80
2019-03-08T01:48:09.830Z,1.77
2019-03-08T01:50:39.582Z,2.07
2019-03-08T01:53:09.044Z,1.80
2019-03-08T01:55:38.488Z,2.00
2019-03-08T01:58:07.890Z,2.03
2019-03-08T02:00:37.200Z,2.20
2019-03-08T02:03:07.296Z,1.80
2019-03-08T02:05:36.589Z,2.60
2019-03-08T02:08:05.954Z,2.30
2019-03-08T02:10:35.423Z,1.87
2019-03-08T02:13:05.108Z,1.77
2019-03-08T02:15:34.891Z,2.17
2019-03-08T02:18:04.317Z,2.00
2019-03-08T02:20:33.610Z,2.23
2019-03-08T02:23:02.919Z,2.20
2019-03-08T02:25:32.289Z,2.00
2019-03-08T02:28:01.725Z,2.00
2019-03-08T02:30:31.357Z,2.40
2019-03-08T02:33:00.740Z,2.17
2019-03-08T02:35:30.034Z,2.00
2019-03-08T02:37:59.366Z,1.97
2019-03-08T02:40:40.762Z,2.10
2019-03-08T02:43:12.490Z,1.87
2019-03-08T02:45:41.815Z,1.77
2019-03-08T02:48:11.539Z,2.63
2019-03-08T02:50:40.796Z,2.10
2019-03-08T02:53:10.173Z,2.00
2019-03-08T02:55:39.705Z,2.07
2019-03-08T02:58:09.036Z,2.20
2019-03-08T03:00:46.012Z,2.10
2019-03-08T03:03:15.987Z,2.10
2019-03-08T03:05:45.609Z,2.20
2019-03-08T03:08:15.149Z,2.03
2019-03-08T03:10:44.455Z,1.90
2019-03-08T03:13:14.431Z,2.40
2019-03-08T03:15:43.800Z,2.27
2019-03-08T03:18:13.077Z,2.10
2019-03-08T03:20:42.729Z,2.20
2019-03-08T03:23:12.332Z,1.87
2019-03-08T03:25:41.965Z,2.07
2019-03-08T03:28:11.260Z,2.13
2019-03-08T03:30:40.552Z,2.70
2019-03-08T03:33:09.924Z,2.20
2019-03-08T03:35:39.282Z,2.10
2019-03-08T03:38:08.554Z,2.10
2019-03-08T03:40:37.841Z,2.17
2019-03-08T03:43:07.142Z,2.40
2019-03-08T03:45:36.468Z,2.00
2019-03-08T03:48:06.424Z,2.37
2019-03-08T03:50:35.725Z,2.30
2019-03-08T03:53:05.068Z,2.00
2019-03-08T03:55:34.431Z,1.97
2019-03-08T03:58:03.754Z,2.23
2019-03-08T04:00:33.131Z,2.10
2019-03-08T04:03:02.466Z,1.87
2019-03-08T04:05:31.768Z,1.70
2019-03-08T04:08:01.204Z,2.10
2019-03-08T04:10:30.585Z,2.20
2019-03-08T04:12:59.943Z,2.37
2019-03-08T04:15:29.424Z,1.70
2019-03-08T04:17:58.711Z,1.60
2019-03-08T04:20:28.055Z,2.33
2019-03-08T04:22:57.325Z,1.87
2019-03-08T04:25:26.626Z,2.00
2019-03-08T04:27:55.909Z,2.13
2019-03-08T04:30:25.256Z,1.80
2019-03-08T04:32:54.556Z,2.43
2019-03-08T04:35:23.855Z,2.67
2019-03-08T04:37:53.227Z,2.40
2019-03-08T04:40:22.660Z,2.97
2019-03-08T04:42:51.957Z,2.30
2019-03-08T04:45:21.519Z,2.43
2019-03-08T04:47:50.812Z,2.33
2019-03-08T04:50:20.171Z,2.27
2019-03-08T04:52:49.644Z,2.13
2019-03-08T04:55:22.612Z,2.03
2019-03-08T04:57:52.554Z,2.10
2019-03-08T05:00:21.906Z,2.90
2019-03-08T05:02:51.553Z,2.90
2019-03-08T05:05:20.827Z,2.60
2019-03-08T05:07:50.124Z,2.50
2019-03-08T05:10:21.249Z,1.90
2019-03-08T05:12:50.562Z,1.63
2019-03-08T05:15:19.829Z,2.53
2019-03-08T05:17:49.154Z,2.00
2019-03-08T05:20:18.459Z,2.07
2019-03-08T05:22:47.727Z,1.73
2019-03-08T05:25:17.560Z,2.10
2019-03-08T05:27:46.960Z,1.60
2019-03-08T05:30:17.888Z,2.60
2019-03-08T05:32:47.197Z,1.63
2019-03-08T05:35:16.462Z,2.13
2019-03-08T05:37:46.738Z,2.00
2019-03-08T05:40:16.720Z,3.13
2019-03-08T05:42:46.062Z,3.93
2019-03-08T05:45:15.838Z,3.60
2019-03-08T05:47:45.172Z,4.27
2019-03-08T05:50:14.562Z,4.33
2019-03-08T05:52:44.382Z,3.93
2019-03-08T05:55:14.172Z,4.13
2019-03-08T05:57:43.493Z,4.10
2019-03-08T06:00:18.536Z,4.53
2019-03-08T06:02:47.816Z,4.57
2019-03-08T06:05:17.200Z,4.50
2019-03-08T06:07:46.491Z,4.53
2019-03-08T06:10:33.932Z,4.03
2019-03-08T06:13:05.697Z,3.20
2019-03-08T06:15:35.095Z,3.20
2019-03-08T06:18:04.983Z,3.00
2019-03-08T06:20:34.306Z,3.07
2019-03-08T06:23:04.602Z,2.60
2019-03-08T06:25:34.420Z,2.30
2019-03-08T06:28:03.781Z,2.50
2019-03-08T06:30:33.777Z,2.57
2019-03-08T06:33:03.081Z,2.50
2019-03-08T06:35:32.823Z,2.60
2019-03-08T06:38:02.285Z,2.80
2019-03-08T06:40:31.918Z,2.80
2019-03-08T06:43:01.232Z,2.60
2019-03-08T06:45:31.142Z,18.23
2019-03-08T06:48:00.511Z,14.80
2019-03-08T06:50:29.824Z,11.73
2019-03-08T06:52:59.151Z,2.70
2019-03-08T06:55:28.435Z,15.97
2019-03-08T06:58:02.482Z,7.03
2019-03-08T07:00:42.463Z,4.53
2019-03-08T07:03:11.785Z,10.57
2019-03-08T07:05:41.074Z,15.40
2019-03-08T07:08:10.463Z,25.20
2019-03-08T07:10:40.325Z,11.67
2019-03-08T07:13:11.531Z,7.37
2019-03-08T07:15:40.931Z,7.30
2019-03-08T07:18:12.920Z,4.83
2019-03-08T07:20:42.842Z,9.23
2019-03-08T07:23:13.972Z,3.93
2019-03-08T07:25:52.578Z,2.93
2019-03-08T07:28:29.551Z,2.90
2019-03-08T07:31:12.320Z,9.07
2019-03-08T07:33:52.866Z,5.60
2019-03-08T07:36:30.901Z,3.53
2019-03-08T07:39:07.754Z,2.80
2019-03-08T07:41:41.952Z,3.87
2019-03-08T07:44:12.989Z,3.20
2019-03-08T07:47:01.967Z,2.43
2019-03-08T07:49:45.191Z,3.10
2019-03-08T07:52:18.862Z,3.00
2019-03-08T07:54:55.593Z,3.27
2019-03-08T07:57:38.587Z,4.03
2019-03-08T08:00:29.974Z,4.00
2019-03-08T08:03:04.636Z,4.03
2019-03-08T08:05:42.551Z,3.27
2019-03-08T08:08:25.245Z,4.10
2019-03-08T08:11:08.095Z,2.83
2019-03-08T08:13:39.261Z,3.13
2019-03-08T08:16:16.054Z,3.17
2019-03-08T08:19:03.069Z,3.30
2019-03-08T08:21:50.753Z,3.10
2019-03-08T08:24:24.418Z,3.10
2019-03-08T08:26:58.537Z,3.53
2019-03-08T08:29:35.052Z,3.70
2019-03-08T08:32:18.218Z,3.00
2019-03-08T08:35:05.272Z,3.27
2019-03-08T08:37:36.590Z,3.53
2019-03-08T08:40:26.610Z,3.10
2019-03-08T08:42:57.637Z,4.00
2019-03-08T08:45:28.719Z,3.83
2019-03-08T08:48:02.919Z,4.10
2019-03-08T08:50:50.405Z,4.40
2019-03-08T08:53:38.273Z,4.33
2019-03-08T08:56:30.117Z,4.80
2019-03-08T08:59:02.355Z,4.13
2019-03-08T09:01:39.633Z,5.70
2019-03-08T09:04:13.627Z,5.90
2019-03-08T09:06:44.676Z,6.23
2019-03-08T09:09:15.785Z,6.07
2019-03-08T09:11:52.445Z,6.33
2019-03-08T09:14:22.380Z,6.87
2019-03-08T09:17:02.581Z,6.47
2019-03-08T09:19:39.423Z,6.53
2019-03-08T09:22:20.173Z,6.83
2019-03-08T09:25:02.002Z,6.50
2019-03-08T09:27:35.708Z,7.37
2019-03-08T09:30:09.988Z,6.73
2019-03-08T09:32:44.483Z,7.40
2019-03-08T09:35:15.804Z,6.83
2019-03-08T09:37:53.040Z,7.27
2019-03-08T09:40:39.508Z,7.37
2019-03-08T09:43:10.645Z,7.27
2019-03-08T09:45:56.268Z,6.80
2019-03-08T09:48:27.573Z,6.43
2019-03-08T09:51:01.655Z,5.73
2019-03-08T09:53:32.576Z,5.43
2019-03-08T09:56:18.531Z,6.33
2019-03-08T09:58:58.464Z,5.63
2019-03-08T10:01:41.637Z,5.83
2019-03-08T10:04:12.576Z,6.03
2019-03-08T10:06:43.710Z,6.00
2019-03-08T10:09:23.902Z,5.20
2019-03-08T10:15:08.840Z,4.90
2019-03-08T10:17:48.535Z,4.93
2019-03-08T10:20:34.539Z,4.87
2019-03-08T10:23:23.651Z,3.90
2019-03-08T10:25:57.987Z,4.10
2019-03-08T10:28:40.989Z,3.97
2019-03-08T10:31:14.602Z,3.47
2019-03-08T10:33:48.831Z,3.50
2019-03-08T10:36:34.740Z,3.00
2019-03-08T10:39:23.595Z,3.20
2019-03-08T10:41:57.555Z,2.80
2019-03-08T10:44:31.052Z,3.77
2019-03-08T10:47:14.501Z,3.70
2019-03-08T10:49:54.888Z,3.80
2019-03-08T10:52:33.703Z,4.30
2019-03-08T10:55:07.713Z,4.30
2019-03-08T10:57:55.100Z,4.10
2019-03-08T11:00:29.172Z,4.93
2019-03-08T11:03:05.847Z,4.50
2019-03-08T11:05:45.618Z,4.93
2019-03-08T11:08:29.489Z,4.63
2019-03-08T11:10:54.824Z,4.60
2019-03-08T11:13:28.248Z,4.93
2019-03-08T11:15:59.303Z,8.80
2019-03-08T11:18:36.159Z,4.80
2019-03-08T11:21:07.346Z,4.87
2019-03-08T11:23:41.245Z,4.80
2019-03-08T11:26:20.863Z,4.83
2019-03-08T11:28:51.792Z,5.27
2019-03-08T11:31:22.712Z,5.33
2019-03-08T11:33:53.651Z,4.73
2019-03-08T11:36:33.605Z,4.73
2019-03-08T11:39:20.716Z,5.70
2019-03-08T11:42:07.772Z,4.63
2019-03-08T11:44:44.711Z,4.97
2019-03-08T11:47:16.105Z,4.47
2019-03-08T11:50:02.045Z,3.43
2019-03-08T11:52:47.877Z,3.70
2019-03-08T11:55:18.819Z,3.20
2019-03-08T11:57:52.492Z,3.20
2019-03-08T12:00:29.649Z,3.00
2019-03-08T12:03:00.574Z,3.43
2019-03-08T12:05:31.799Z,3.30
2019-03-08T12:08:03.012Z,3.40
2019-03-08T12:10:52.421Z,2.50
2019-03-08T12:13:26.300Z,3.37
2019-03-08T12:15:57.330Z,5.70
2019-03-08T12:18:43.493Z,5.27
2019-03-08T12:21:32.404Z,4.93
2019-03-08T12:24:09.317Z,4.83
2019-03-08T12:26:46.000Z,3.30
2019-03-08T12:29:16.922Z,4.03
2019-03-08T12:31:50.374Z,6.80
2019-03-08T12:34:27.086Z,10.87
2019-03-08T12:36:58.049Z,5.17
2019-03-08T12:39:31.931Z,4.20
2019-03-08T12:42:03.229Z,3.53
2019-03-08T12:44:50.563Z,4.70
2019-03-08T12:47:36.913Z,7.10
2019-03-08T12:50:27.765Z,2.70
2019-03-08T12:53:13.799Z,2.97
2019-03-08T12:56:00.005Z,4.00
2019-03-08T12:58:31.032Z,4.70
2019-03-08T13:01:02.111Z,3.80
2019-03-08T13:03:45.112Z,3.57
2019-03-08T13:06:18.733Z,4.27
2019-03-08T13:08:49.726Z,7.20
2019-03-08T13:11:20.813Z,3.63
2019-03-08T13:13:50.291Z,7.70
2019-03-08T13:16:19.697Z,7.60
2019-03-08T13:18:49.144Z,4.20
2019-03-08T13:21:18.450Z,4.30
2019-03-08T13:23:47.822Z,3.77
2019-03-08T13:26:17.115Z,4.90
2019-03-08T13:28:46.886Z,3.20
2019-03-08T13:31:16.350Z,3.83
2019-03-08T13:33:45.651Z,3.23
2019-03-08T13:36:15.107Z,2.80
2019-03-08T13:38:44.441Z,2.63
2019-03-08T13:41:13.738Z,2.80
2019-03-08T13:43:43.228Z,2.60
2019-03-08T13:46:12.733Z,3.00
2019-03-08T13:48:42.131Z,3.17
2019-03-08T13:51:11.512Z,2.70
2019-03-08T13:53:40.795Z,2.50
2019-03-08T13:56:10.240Z,2.80
2019-03-08T13:58:39.569Z,2.37
2019-03-08T14:01:08.972Z,2.07
2019-03-08T14:03:38.444Z,2.17
2019-03-08T14:06:07.897Z,2.53
2019-03-08T14:08:37.183Z,2.40
2019-03-08T14:11:06.762Z,2.90
2019-03-08T14:13:36.178Z,2.53
2019-03-08T14:16:05.469Z,2.77
2019-03-08T14:18:34.779Z,2.50
2019-03-08T14:21:04.128Z,2.70
2019-03-08T14:23:34.842Z,2.90
2019-03-08T14:26:06.059Z,2.80
2019-03-08T14:28:35.389Z,2.70
2019-03-08T14:31:12.671Z,2.27
2019-03-08T14:33:43.216Z,2.40
2019-03-08T14:36:12.965Z,2.60
2019-03-08T14:38:42.288Z,2.40
2019-03-08T14:41:21.896Z,2.63
2019-03-08T14:43:53.890Z,2.53
2019-03-08T14:46:24.842Z,2.53
2019-03-08T14:48:54.152Z,1.97
2019-03-08T14:51:23.458Z,2.30
2019-03-08T14:53:52.753Z,2.40
2019-03-08T14:56:22.030Z,2.40
2019-03-08T14:58:51.501Z,2.23
2019-03-08T15:01:20.799Z,2.33
2019-03-08T15:03:50.099Z,2.03
2019-03-08T15:06:19.405Z,2.60
2019-03-08T15:08:51.193Z,2.30
2019-03-08T15:11:23.502Z,2.80
2019-03-08T15:13:50.695Z,2.30
2019-03-08T15:16:20.074Z,2.33
2019-03-08T15:18:49.398Z,2.40
2019-03-08T15:21:18.692Z,2.53
2019-03-08T15:23:50.812Z,8.30
2019-03-08T15:26:19.127Z,2.90
2019-03-08T15:28:48.451Z,2.43
2019-03-08T15:31:18.392Z,2.50
2019-03-08T15:33:47.661Z,2.93
2019-03-08T15:36:17.573Z,2.70
2019-03-08T15:38:46.889Z,2.30
2019-03-08T15:41:16.236Z,2.40
2019-03-08T15:43:46.905Z,2.30
2019-03-08T15:46:22.340Z,2.30
2019-03-08T15:48:53.285Z,2.30
2019-03-08T15:51:25.206Z,4.03
2019-03-08T15:53:54.411Z,2.63
2019-03-08T15:56:24.243Z,2.90
2019-03-08T15:58:53.545Z,3.23
2019-03-08T16:01:23.427Z,2.70
2019-03-08T16:03:52.718Z,2.90
2019-03-08T16:06:22.350Z,2.90
2019-03-08T16:08:52.231Z,3.00
2019-03-08T16:11:21.605Z,3.00
2019-03-08T16:13:51.364Z,2.90
2019-03-08T16:16:20.721Z,3.07
2019-03-08T16:18:50.110Z,3.00
2019-03-08T16:21:19.420Z,2.97
2019-03-08T16:23:48.705Z,3.90
2019-03-08T16:26:21.419Z,3.23
2019-03-08T16:28:50.047Z,3.50
2019-03-08T16:31:30.526Z,3.47
2019-03-08T16:34:01.210Z,3.23
2019-03-08T16:36:32.515Z,3.83
2019-03-08T16:39:13.131Z,2.73
2019-03-08T16:41:48.998Z,2.97
2019-03-08T16:44:32.312Z,3.60
2019-03-08T16:47:03.886Z,2.90
2019-03-08T16:49:40.120Z,3.43
2019-03-08T16:52:25.992Z,2.80
2019-03-08T16:54:57.060Z,2.60
2019-03-08T16:57:34.196Z,2.70
2019-03-08T17:00:17.939Z,2.80
2019-03-08T17:03:05.137Z,2.43
2019-03-08T17:05:39.247Z,2.17
2019-03-08T17:08:25.243Z,2.10
2019-03-08T17:10:56.655Z,1.77
2019-03-08T17:13:27.625Z,1.90
2019-03-08T17:16:07.628Z,1.63
2019-03-08T17:18:41.306Z,2.30
2019-03-08T17:21:28.154Z,1.97
2019-03-08T17:23:59.841Z,1.90
2019-03-08T17:26:36.783Z,1.10
2019-03-08T17:29:19.694Z,1.30
2019-03-08T17:31:53.059Z,1.53
2019-03-08T17:34:26.985Z,1.80
2019-03-08T17:37:12.820Z,1.87
2019-03-08T17:39:44.812Z,1.97
2019-03-08T17:42:32.558Z,2.30
2019-03-08T17:45:21.704Z,1.60
2019-03-08T17:48:09.010Z,1.93
2019-03-08T17:50:49.158Z,1.93
2019-03-08T17:53:20.307Z,2.13
2019-03-08T17:55:53.936Z,2.10
2019-03-08T17:58:41.252Z,2.20
2019-03-08T18:01:15.020Z,2.30
2019-03-08T18:03:55.283Z,2.27
2019-03-08T18:06:38.184Z,2.10
2019-03-08T18:09:09.379Z,2.07
2019-03-08T18:11:58.735Z,2.37
2019-03-08T18:14:45.767Z,2.10
2019-03-08T18:17:17.093Z,2.33
2019-03-08T18:20:00.406Z,2.60
2019-03-08T18:22:46.699Z,2.30
2019-03-08T18:25:24.090Z,2.80
2019-03-08T18:28:10.558Z,3.13
2019-03-08T18:30:59.530Z,2.47
2019-03-08T18:33:42.681Z,2.90
2019-03-08T18:36:22.641Z,2.80
2019-03-08T18:38:59.594Z,4.00
2019-03-08T18:41:39.591Z,2.80
2019-03-08T18:44:10.742Z,3.30
2019-03-08T18:46:41.812Z,3.37
2019-03-08T18:49:12.743Z,3.07
2019-03-08T18:51:43.874Z,4.17
2019-03-08T18:54:17.773Z,2.87
2019-03-08T18:56:48.812Z,2.43
2019-03-08T18:59:25.960Z,2.33
2019-03-08T19:01:56.917Z,2.43
2019-03-08T19:04:30.580Z,2.50
2019-03-08T19:07:17.444Z,2.90
2019-03-08T19:09:48.371Z,2.53
2019-03-08T19:12:28.335Z,2.80
2019-03-08T19:15:02.255Z,3.07
2019-03-08T19:17:33.198Z,6.00
2019-03-08T19:20:22.559Z,2.60
2019-03-08T19:22:56.828Z,2.67
2019-03-08T19:25:44.339Z,5.20
2019-03-08T19:28:31.793Z,2.87
2019-03-08T19:31:02.976Z,2.57
2019-03-08T19:33:37.117Z,2.50
2019-03-08T19:36:20.185Z,2.77
2019-03-08T19:39:07.450Z,3.33
2019-03-08T19:41:55.118Z,2.80
2019-03-08T19:44:26.465Z,2.97
2019-03-08T19:47:03.410Z,2.90
2019-03-08T19:49:37.643Z,3.10
2019-03-08T19:52:08.595Z,2.80
2019-03-08T19:54:48.775Z,3.40
2019-03-08T19:57:37.890Z,3.17
2019-03-08T20:00:23.822Z,5.63
2019-03-08T20:02:54.787Z,6.07
2019-03-08T20:05:42.251Z,3.67
2019-03-08T20:08:29.638Z,3.50
2019-03-08T20:11:15.515Z,3.80
2019-03-08T20:13:55.169Z,3.20
2019-03-08T20:16:26.123Z,3.13
2019-03-08T20:19:00.103Z,3.90
2019-03-08T20:21:45.840Z,3.40
2019-03-08T20:24:33.834Z,3.73
2019-03-08T20:27:21.505Z,3.80
2019-03-08T20:29:56.195Z,3.77
2019-03-08T20:32:39.286Z,4.37
2019-03-08T20:35:16.313Z,3.90
2019-03-08T20:37:47.276Z,4.23
2019-03-08T20:40:34.322Z,4.27
2019-03-08T20:43:08.104Z,4.40
2019-03-08T20:45:39.154Z,5.30
2019-03-08T20:48:08.447Z,5.20
2019-03-08T20:50:37.915Z,5.30
2019-03-08T20:53:07.408Z,7.40
2019-03-08T20:55:37.132Z,4.70
2019-03-08T20:58:06.616Z,5.40
2019-03-08T21:00:36.120Z,3.70
2019-03-08T21:03:05.784Z,4.23
2019-03-08T21:05:35.131Z,4.00
2019-03-08T21:08:04.593Z,3.73
2019-03-08T21:10:34.045Z,3.90
2019-03-08T21:13:03.562Z,3.90
2019-03-08T21:15:32.853Z,3.27
2019-03-08T21:18:02.251Z,3.90
2019-03-08T21:20:31.717Z,3.10
2019-03-08T21:23:01.589Z,4.00
2019-03-08T21:25:31.081Z,6.67
2019-03-08T21:28:00.866Z,3.83
2019-03-08T21:30:30.359Z,3.87
2019-03-08T21:33:00.058Z,3.60
2019-03-08T21:35:29.685Z,3.67
2019-03-08T21:37:59.724Z,3.43
2019-03-08T21:40:29.310Z,3.73
2019-03-08T21:42:58.803Z,3.10
2019-03-08T21:45:28.297Z,3.37
2019-03-08T21:47:58.059Z,3.27
2019-03-08T21:50:27.641Z,3.27
2019-03-08T21:52:57.011Z,3.30
2019-03-08T21:55:26.377Z,3.33
2019-03-08T21:57:55.714Z,3.13
2019-03-08T22:00:27.170Z,3.13
2019-03-08T22:02:56.637Z,3.27
2019-03-08T22:05:27.626Z,3.67
2019-03-08T22:07:56.974Z,3.70
2019-03-08T22:10:27.976Z,3.50
2019-03-08T22:12:57.417Z,3.20
2019-03-08T22:15:26.807Z,3.63
2019-03-08T22:17:56.150Z,3.07
2019-03-08T22:20:25.581Z,3.73
2019-03-08T22:22:55.028Z,3.07
2019-03-08T22:25:24.870Z,3.23
2019-03-08T22:27:54.172Z,3.20
2019-03-08T22:30:23.518Z,3.23
2019-03-08T22:32:53.027Z,2.70
2019-03-08T22:35:22.314Z,3.37
2019-03-08T22:37:51.911Z,3.17
2019-03-08T22:40:21.416Z,2.93
2019-03-08T22:42:50.847Z,3.03
2019-03-08T22:45:20.194Z,3.00
2019-03-08T22:47:49.511Z,3.10
2019-03-08T22:50:19.411Z,3.03
2019-03-08T22:52:48.717Z,2.67
2019-03-08T22:55:18.152Z,2.70
2019-03-08T22:57:47.626Z,2.97
2019-03-08T23:01:00.381Z,2.70
2019-03-08T23:03:30.864Z,2.70
2019-03-08T23:06:00.212Z,3.03
2019-03-08T23:08:30.363Z,2.90
2019-03-08T23:10:59.721Z,2.63
2019-03-08T23:13:29.132Z,2.83
2019-03-08T23:15:58.616Z,2.60
2019-03-08T23:18:28.011Z,3.00
2019-03-08T23:20:57.924Z,2.80
2019-03-08T23:23:27.227Z,2.53
2019-03-08T23:25:56.755Z,2.97
2019-03-08T23:28:27.698Z,2.80
2019-03-08T23:31:01.602Z,2.60
2019-03-08T23:33:30.909Z,2.53
2019-03-08T23:36:00.188Z,2.40
2019-03-08T23:38:29.571Z,2.70
2019-03-08T23:40:58.957Z,2.97
2019-03-08T23:43:28.267Z,2.47
2019-03-08T23:45:57.896Z,2.80
2019-03-08T23:48:27.371Z,2.30
2019-03-08T23:50:56.918Z,2.37
2019-03-08T23:53:26.198Z,2.63
2019-03-08T23:55:55.454Z,2.80
2019-03-08T23:58:24.926Z,2.80
